sensor_id;sensor_type;location;lat;lon;timestamp;temperature;humidity
5796;DHT22;2924;51.458;7.046;2022-11-20T00:00:57;-3.40;99.90
5796;DHT22;2924;51.458;7.046;2022-11-20T00:03:23;-3.50;99.90
5796;DHT22;2924;51.458;7.046;2022-11-20T00:05:48;-3.40;99.90
5796;DHT22;2924;51.458;7.046;2022-11-20T00:08:14;-3.50;99.90
5796;DHT22;2924;51.458;7.046;2022-11-20T00:10:40;-3.50;99.90
5796;DHT22;2924;51.458;7.046;2022-11-20T00:13:06;-3.60;99.90
5796;DHT22;2924;51.458;7.046;2022-11-20T00:15:33;-3.70;99.90
5796;DHT22;2924;51.458;7.046;2022-11-20T00:17:58;-3.70;99.90
5796;DHT22;2924;51.458;7.046;2022-11-20T00:20:24;-3.80;99.90
5796;DHT22;2924;51.458;7.046;2022-11-20T00:22:50;-3.80;99.90
5796;DHT22;2924;51.458;7.046;2022-11-20T00:25:16;-3.80;99.90
5796;DHT22;2924;51.458;7.046;2022-11-20T00:27:42;-3.80;99.90
5796;DHT22;2924;51.458;7.046;2022-11-20T00:30:08;-3.70;99.90
5796;DHT22;2924;51.458;7.046;2022-11-20T00:32:34;-3.70;99.90
5796;DHT22;2924;51.458;7.046;2022-11-20T00:34:59;-3.80;99.90
5796;DHT22;2924;51.458;7.046;2022-11-20T00:37:25;-3.90;99.90
5796;DHT22;2924;51.458;7.046;2022-11-20T00:39:51;-4.00;99.90
5796;DHT22;2924;51.458;7.046;2022-11-20T00:42:16;-3.80;99.90
5796;DHT22;2924;51.458;7.046;2022-11-20T00:44:42;-3.70;99.90
5796;DHT22;2924;51.458;7.046;2022-11-20T00:47:08;-3.60;99.90
5796;DHT22;2924;51.458;7.046;2022-11-20T00:49:33;-3.70;99.90
5796;DHT22;2924;51.458;7.046;2022-11-20T00:51:59;-3.90;99.90
5796;DHT22;2924;51.458;7.046;2022-11-20T00:54:24;-4.00;99.90
5796;DHT22;2924;51.458;7.046;2022-11-20T00:56:52;-4.10;99.90
5796;DHT22;2924;51.458;7.046;2022-11-20T00:59:18;-4.10;99.90
5796;DHT22;2924;51.458;7.046;2022-11-20T01:01:45;-4.10;99.90
5796;DHT22;2924;51.458;7.046;2022-11-20T01:04:10;-3.90;99.90
5796;DHT22;2924;51.458;7.046;2022-11-20T01:06:37;-4.00;99.90
5796;DHT22;2924;51.458;7.046;2022-11-20T01:09:10;-4.10;99.90
5796;DHT22;2924;51.458;7.046;2022-11-20T01:11:41;-4.20;99.90
5796;DHT22;2924;51.458;7.046;2022-11-20T01:14:09;-4.30;99.90
5796;DHT22;2924;51.458;7.046;2022-11-20T01:16:39;-4.40;99.90
5796;DHT22;2924;51.458;7.046;2022-11-20T01:19:07;-4.30;99.90
5796;DHT22;2924;51.458;7.046;2022-11-20T01:21:35;-4.10;99.90
5796;DHT22;2924;51.458;7.046;2022-11-20T01:24:02;-4.10;99.90
5796;DHT22;2924;51.458;7.046;2022-11-20T01:26:31;-4.00;99.90
5796;DHT22;2924;51.458;7.046;2022-11-20T01:28:57;-3.90;99.90
5796;DHT22;2924;51.458;7.046;2022-11-20T01:31:26;-3.70;99.90
5796;DHT22;2924;51.458;7.046;2022-11-20T01:33:54;-3.60;99.90
5796;DHT22;2924;51.458;7.046;2022-11-20T01:36:21;-3.50;99.90
5796;DHT22;2924;51.458;7.046;2022-11-20T01:38:50;-3.50;99.90
5796;DHT22;2924;51.458;7.046;2022-11-20T01:41:16;-3.50;99.90
5796;DHT22;2924;51.458;7.046;2022-11-20T01:44:02;-3.40;99.90
5796;DHT22;2924;51.458;7.046;2022-11-20T01:46:28;-3.30;99.90
5796;DHT22;2924;51.458;7.046;2022-11-20T01:51:38;-3.40;99.90
5796;DHT22;2924;51.458;7.046;2022-11-20T01:54:08;-3.40;99.90
5796;DHT22;2924;51.458;7.046;2022-11-20T01:56:38;-3.30;99.90
5796;DHT22;2924;51.458;7.046;2022-11-20T01:59:07;-3.20;99.90
5796;DHT22;2924;51.458;7.046;2022-11-20T02:01:34;-3.20;99.90
5796;DHT22;2924;51.458;7.046;2022-11-20T02:04:00;-3.10;99.90
5796;DHT22;2924;51.458;7.046;2022-11-20T02:06:30;-3.00;99.90
5796;DHT22;2924;51.458;7.046;2022-11-20T02:08:58;-2.90;99.90
5796;DHT22;2924;51.458;7.046;2022-11-20T02:11:23;-2.70;99.90
5796;DHT22;2924;51.458;7.046;2022-11-20T02:13:49;-2.60;99.90
5796;DHT22;2924;51.458;7.046;2022-11-20T02:16:20;-2.50;99.90
5796;DHT22;2924;51.458;7.046;2022-11-20T02:18:47;-2.50;99.90
5796;DHT22;2924;51.458;7.046;2022-11-20T02:21:16;-2.40;99.90
5796;DHT22;2924;51.458;7.046;2022-11-20T02:26:20;-2.50;99.90
5796;DHT22;2924;51.458;7.046;2022-11-20T02:28:46;-2.60;99.90
5796;DHT22;2924;51.458;7.046;2022-11-20T02:31:12;-2.40;99.90
5796;DHT22;2924;51.458;7.046;2022-11-20T02:33:37;-2.30;99.90
5796;DHT22;2924;51.458;7.046;2022-11-20T02:36:03;-2.30;99.90
5796;DHT22;2924;51.458;7.046;2022-11-20T02:38:29;-2.30;99.90
5796;DHT22;2924;51.458;7.046;2022-11-20T02:40:55;-2.20;99.90
5796;DHT22;2924;51.458;7.046;2022-11-20T02:43:21;-2.20;99.90
5796;DHT22;2924;51.458;7.046;2022-11-20T02:45:46;-2.20;99.90
5796;DHT22;2924;51.458;7.046;2022-11-20T02:48:12;-2.20;99.90
5796;DHT22;2924;51.458;7.046;2022-11-20T02:50:38;-2.20;99.90
5796;DHT22;2924;51.458;7.046;2022-11-20T02:53:05;-2.20;99.90
5796;DHT22;2924;51.458;7.046;2022-11-20T02:55:31;-2.30;99.90
5796;DHT22;2924;51.458;7.046;2022-11-20T02:57:56;-2.30;99.90
5796;DHT22;2924;51.458;7.046;2022-11-20T03:00:22;-2.30;99.90
5796;DHT22;2924;51.458;7.046;2022-11-20T03:02:47;-2.30;99.90
5796;DHT22;2924;51.458;7.046;2022-11-20T03:05:13;-2.30;99.90
5796;DHT22;2924;51.458;7.046;2022-11-20T03:07:39;-2.30;99.90
5796;DHT22;2924;51.458;7.046;2022-11-20T03:10:05;-2.20;99.90
5796;DHT22;2924;51.458;7.046;2022-11-20T03:12:31;-2.20;99.90
5796;DHT22;2924;51.458;7.046;2022-11-20T03:14:56;-2.10;99.90
5796;DHT22;2924;51.458;7.046;2022-11-20T03:17:22;-2.00;99.90
5796;DHT22;2924;51.458;7.046;2022-11-20T03:19:47;-1.90;99.90
5796;DHT22;2924;51.458;7.046;2022-11-20T03:22:13;-1.90;99.90
5796;DHT22;2924;51.458;7.046;2022-11-20T03:24:39;-1.80;99.90
5796;DHT22;2924;51.458;7.046;2022-11-20T03:27:04;-1.70;99.90
5796;DHT22;2924;51.458;7.046;2022-11-20T03:29:30;-1.60;99.90
5796;DHT22;2924;51.458;7.046;2022-11-20T03:31:55;-1.60;99.90
5796;DHT22;2924;51.458;7.046;2022-11-20T03:34:21;-1.50;99.90
5796;DHT22;2924;51.458;7.046;2022-11-20T03:36:47;-1.50;99.90
5796;DHT22;2924;51.458;7.046;2022-11-20T03:39:12;-1.50;99.90
5796;DHT22;2924;51.458;7.046;2022-11-20T03:41:40;-1.40;99.90
5796;DHT22;2924;51.458;7.046;2022-11-20T03:44:07;-1.40;99.90
5796;DHT22;2924;51.458;7.046;2022-11-20T03:46:33;-1.30;99.90
5796;DHT22;2924;51.458;7.046;2022-11-20T03:49:00;-1.30;99.90
5796;DHT22;2924;51.458;7.046;2022-11-20T03:51:30;-1.20;99.90
5796;DHT22;2924;51.458;7.046;2022-11-20T03:53:58;-1.20;99.90
5796;DHT22;2924;51.458;7.046;2022-11-20T03:56:27;-1.30;99.90
5796;DHT22;2924;51.458;7.046;2022-11-20T03:58:53;-1.30;99.90
5796;DHT22;2924;51.458;7.046;2022-11-20T04:01:22;-1.30;99.90
5796;DHT22;2924;51.458;7.046;2022-11-20T04:03:48;-1.30;99.90
5796;DHT22;2924;51.458;7.046;2022-11-20T04:06:16;-1.40;99.90
5796;DHT22;2924;51.458;7.046;2022-11-20T04:08:42;-1.40;99.90
5796;DHT22;2924;51.458;7.046;2022-11-20T04:11:13;-1.40;99.90
5796;DHT22;2924;51.458;7.046;2022-11-20T04:13:39;-1.40;99.90
5796;DHT22;2924;51.458;7.046;2022-11-20T04:16:06;-1.40;99.90
5796;DHT22;2924;51.458;7.046;2022-11-20T04:18:33;-1.40;99.90
5796;DHT22;2924;51.458;7.046;2022-11-20T04:20:59;-1.50;99.90
5796;DHT22;2924;51.458;7.046;2022-11-20T04:23:25;-1.40;99.90
5796;DHT22;2924;51.458;7.046;2022-11-20T04:25:51;-1.50;99.90
5796;DHT22;2924;51.458;7.046;2022-11-20T04:28:16;-1.40;99.90
5796;DHT22;2924;51.458;7.046;2022-11-20T04:30:42;-1.40;99.90
5796;DHT22;2924;51.458;7.046;2022-11-20T04:33:08;-1.50;99.90
5796;DHT22;2924;51.458;7.046;2022-11-20T04:35:34;-1.40;99.90
5796;DHT22;2924;51.458;7.046;2022-11-20T04:38:00;-1.50;99.90
5796;DHT22;2924;51.458;7.046;2022-11-20T04:40:27;-1.50;99.90
5796;DHT22;2924;51.458;7.046;2022-11-20T04:42:54;-1.50;99.90
5796;DHT22;2924;51.458;7.046;2022-11-20T04:45:20;-1.50;99.90
5796;DHT22;2924;51.458;7.046;2022-11-20T04:47:45;-1.50;99.90
5796;DHT22;2924;51.458;7.046;2022-11-20T04:50:11;-1.40;99.90
5796;DHT22;2924;51.458;7.046;2022-11-20T04:52:37;-1.40;99.90
5796;DHT22;2924;51.458;7.046;2022-11-20T04:55:03;-1.40;99.90
5796;DHT22;2924;51.458;7.046;2022-11-20T04:57:29;-1.40;99.90
5796;DHT22;2924;51.458;7.046;2022-11-20T04:59:54;-1.40;99.90
5796;DHT22;2924;51.458;7.046;2022-11-20T05:02:22;-1.40;99.90
5796;DHT22;2924;51.458;7.046;2022-11-20T05:04:48;-1.40;99.90
5796;DHT22;2924;51.458;7.046;2022-11-20T05:07:14;-1.50;99.90
5796;DHT22;2924;51.458;7.046;2022-11-20T05:09:40;-1.50;99.90
5796;DHT22;2924;51.458;7.046;2022-11-20T05:12:07;-1.70;99.90
5796;DHT22;2924;51.458;7.046;2022-11-20T05:14:33;-1.70;99.90
5796;DHT22;2924;51.458;7.046;2022-11-20T05:16:59;-1.70;99.90
5796;DHT22;2924;51.458;7.046;2022-11-20T05:19:25;-1.60;99.90
5796;DHT22;2924;51.458;7.046;2022-11-20T05:21:50;-1.60;99.90
5796;DHT22;2924;51.458;7.046;2022-11-20T05:24:16;-1.50;99.90
5796;DHT22;2924;51.458;7.046;2022-11-20T05:26:42;-1.40;99.90
5796;DHT22;2924;51.458;7.046;2022-11-20T05:29:12;-1.30;99.90
5796;DHT22;2924;51.458;7.046;2022-11-20T05:31:40;-1.20;99.90
5796;DHT22;2924;51.458;7.046;2022-11-20T05:34:06;-1.20;99.90
5796;DHT22;2924;51.458;7.046;2022-11-20T05:36:31;-1.10;99.90
5796;DHT22;2924;51.458;7.046;2022-11-20T05:38:57;-1.10;99.90
5796;DHT22;2924;51.458;7.046;2022-11-20T05:41:23;-1.00;99.90
5796;DHT22;2924;51.458;7.046;2022-11-20T05:43:49;-0.90;99.90
5796;DHT22;2924;51.458;7.046;2022-11-20T05:46:17;-0.80;99.90
5796;DHT22;2924;51.458;7.046;2022-11-20T05:48:44;-0.80;99.90
5796;DHT22;2924;51.458;7.046;2022-11-20T05:51:13;-0.80;99.90
5796;DHT22;2924;51.458;7.046;2022-11-20T05:53:39;-0.70;99.90
5796;DHT22;2924;51.458;7.046;2022-11-20T05:56:08;-0.70;99.90
5796;DHT22;2924;51.458;7.046;2022-11-20T05:58:36;-0.60;99.90
5796;DHT22;2924;51.458;7.046;2022-11-20T06:01:06;-0.60;99.90
5796;DHT22;2924;51.458;7.046;2022-11-20T06:03:32;-0.60;99.90
5796;DHT22;2924;51.458;7.046;2022-11-20T06:05:59;-0.50;99.90
5796;DHT22;2924;51.458;7.046;2022-11-20T06:08:25;-0.50;99.90
5796;DHT22;2924;51.458;7.046;2022-11-20T06:10:50;-0.50;99.90
5796;DHT22;2924;51.458;7.046;2022-11-20T06:13:16;-0.60;99.90
5796;DHT22;2924;51.458;7.046;2022-11-20T06:15:41;-0.60;99.90
5796;DHT22;2924;51.458;7.046;2022-11-20T06:18:07;-0.60;99.90
5796;DHT22;2924;51.458;7.046;2022-11-20T06:20:33;-0.70;99.90
5796;DHT22;2924;51.458;7.046;2022-11-20T06:22:58;-0.70;99.90
5796;DHT22;2924;51.458;7.046;2022-11-20T06:25:24;-0.80;99.90
5796;DHT22;2924;51.458;7.046;2022-11-20T06:27:49;-0.90;99.90
5796;DHT22;2924;51.458;7.046;2022-11-20T06:30:15;-1.00;99.90
5796;DHT22;2924;51.458;7.046;2022-11-20T06:32:41;-1.00;99.90
5796;DHT22;2924;51.458;7.046;2022-11-20T06:35:07;-1.10;99.90
5796;DHT22;2924;51.458;7.046;2022-11-20T06:37:32;-1.10;99.90
5796;DHT22;2924;51.458;7.046;2022-11-20T06:39:58;-1.10;99.90
5796;DHT22;2924;51.458;7.046;2022-11-20T06:42:24;-1.10;99.90
5796;DHT22;2924;51.458;7.046;2022-11-20T06:44:49;-1.10;99.90
5796;DHT22;2924;51.458;7.046;2022-11-20T06:47:15;-1.10;99.90
5796;DHT22;2924;51.458;7.046;2022-11-20T06:49:40;-1.10;99.90
5796;DHT22;2924;51.458;7.046;2022-11-20T06:52:06;-1.20;99.90
5796;DHT22;2924;51.458;7.046;2022-11-20T06:54:32;-1.20;99.90
5796;DHT22;2924;51.458;7.046;2022-11-20T06:56:57;-1.30;99.90
5796;DHT22;2924;51.458;7.046;2022-11-20T06:59:23;-1.40;99.90
5796;DHT22;2924;51.458;7.046;2022-11-20T07:01:48;-1.40;99.90
5796;DHT22;2924;51.458;7.046;2022-11-20T07:04:14;-1.50;99.90
5796;DHT22;2924;51.458;7.046;2022-11-20T07:06:40;-1.60;99.90
5796;DHT22;2924;51.458;7.046;2022-11-20T07:09:05;-1.70;99.90
5796;DHT22;2924;51.458;7.046;2022-11-20T07:11:31;-1.80;99.90
5796;DHT22;2924;51.458;7.046;2022-11-20T07:13:57;-1.80;99.90
5796;DHT22;2924;51.458;7.046;2022-11-20T07:16:22;-1.80;99.90
5796;DHT22;2924;51.458;7.046;2022-11-20T07:18:48;-1.70;99.90
5796;DHT22;2924;51.458;7.046;2022-11-20T07:21:14;-1.60;99.90
5796;DHT22;2924;51.458;7.046;2022-11-20T07:23:39;-1.60;99.90
5796;DHT22;2924;51.458;7.046;2022-11-20T07:26:07;-1.60;99.90
5796;DHT22;2924;51.458;7.046;2022-11-20T07:28:33;-1.60;99.90
5796;DHT22;2924;51.458;7.046;2022-11-20T07:30:59;-1.60;99.90
5796;DHT22;2924;51.458;7.046;2022-11-20T07:33:25;-1.60;99.90
5796;DHT22;2924;51.458;7.046;2022-11-20T07:35:50;-1.60;99.90
5796;DHT22;2924;51.458;7.046;2022-11-20T07:38:16;-1.50;99.90
5796;DHT22;2924;51.458;7.046;2022-11-20T07:40:42;-1.50;99.90
5796;DHT22;2924;51.458;7.046;2022-11-20T07:43:07;-1.50;99.90
5796;DHT22;2924;51.458;7.046;2022-11-20T07:45:33;-1.40;99.90
5796;DHT22;2924;51.458;7.046;2022-11-20T07:47:59;-1.30;99.90
5796;DHT22;2924;51.458;7.046;2022-11-20T07:50:24;-1.20;99.90
5796;DHT22;2924;51.458;7.046;2022-11-20T07:52:50;-1.20;99.90
5796;DHT22;2924;51.458;7.046;2022-11-20T07:55:16;-1.10;99.90
5796;DHT22;2924;51.458;7.046;2022-11-20T07:57:41;-1.00;99.90
5796;DHT22;2924;51.458;7.046;2022-11-20T08:00:09;-0.80;99.90
5796;DHT22;2924;51.458;7.046;2022-11-20T08:02:40;-0.70;99.90
5796;DHT22;2924;51.458;7.046;2022-11-20T08:05:07;-0.50;99.90
5796;DHT22;2924;51.458;7.046;2022-11-20T08:07:41;-0.40;99.90
5796;DHT22;2924;51.458;7.046;2022-11-20T08:10:09;-0.40;99.90
5796;DHT22;2924;51.458;7.046;2022-11-20T08:12:34;-0.30;99.90
5796;DHT22;2924;51.458;7.046;2022-11-20T08:15:19;-0.30;99.90
5796;DHT22;2924;51.458;7.046;2022-11-20T08:17:45;-0.20;99.90
5796;DHT22;2924;51.458;7.046;2022-11-20T08:20:10;0.10;99.90
5796;DHT22;2924;51.458;7.046;2022-11-20T08:22:36;0.50;99.90
5796;DHT22;2924;51.458;7.046;2022-11-20T08:25:02;0.90;99.90
5796;DHT22;2924;51.458;7.046;2022-11-20T08:27:27;1.30;99.90
5796;DHT22;2924;51.458;7.046;2022-11-20T08:29:53;1.80;99.90
5796;DHT22;2924;51.458;7.046;2022-11-20T08:32:18;2.20;99.90
5796;DHT22;2924;51.458;7.046;2022-11-20T08:34:44;2.60;99.90
5796;DHT22;2924;51.458;7.046;2022-11-20T08:37:10;3.00;99.90
5796;DHT22;2924;51.458;7.046;2022-11-20T08:39:35;3.20;99.90
5796;DHT22;2924;51.458;7.046;2022-11-20T08:42:06;3.10;99.90
5796;DHT22;2924;51.458;7.046;2022-11-20T08:44:32;2.80;99.90
5796;DHT22;2924;51.458;7.046;2022-11-20T08:46:58;2.50;99.90
5796;DHT22;2924;51.458;7.046;2022-11-20T08:49:23;2.30;99.90
5796;DHT22;2924;51.458;7.046;2022-11-20T08:51:49;2.10;99.90
5796;DHT22;2924;51.458;7.046;2022-11-20T08:54:18;2.00;99.90
5796;DHT22;2924;51.458;7.046;2022-11-20T08:56:47;2.10;99.90
5796;DHT22;2924;51.458;7.046;2022-11-20T08:59:13;2.20;99.90
5796;DHT22;2924;51.458;7.046;2022-11-20T09:01:38;2.30;99.90
5796;DHT22;2924;51.458;7.046;2022-11-20T09:04:04;2.40;99.90
5796;DHT22;2924;51.458;7.046;2022-11-20T09:06:30;2.40;99.90
5796;DHT22;2924;51.458;7.046;2022-11-20T09:08:56;2.60;99.90
5796;DHT22;2924;51.458;7.046;2022-11-20T09:11:22;2.70;99.90
5796;DHT22;2924;51.458;7.046;2022-11-20T09:13:48;2.70;99.90
5796;DHT22;2924;51.458;7.046;2022-11-20T09:16:14;2.80;99.90
5796;DHT22;2924;51.458;7.046;2022-11-20T09:18:40;2.90;99.90
5796;DHT22;2924;51.458;7.046;2022-11-20T09:21:09;3.10;99.90
5796;DHT22;2924;51.458;7.046;2022-11-20T09:23:36;3.30;99.90
5796;DHT22;2924;51.458;7.046;2022-11-20T09:26:08;3.50;99.90
5796;DHT22;2924;51.458;7.046;2022-11-20T09:28:34;3.60;99.90
5796;DHT22;2924;51.458;7.046;2022-11-20T09:31:00;3.70;99.90
5796;DHT22;2924;51.458;7.046;2022-11-20T09:33:26;3.60;99.90
5796;DHT22;2924;51.458;7.046;2022-11-20T09:35:52;3.70;99.90
5796;DHT22;2924;51.458;7.046;2022-11-20T09:38:18;3.90;99.90
5796;DHT22;2924;51.458;7.046;2022-11-20T09:41:10;4.00;99.90
5796;DHT22;2924;51.458;7.046;2022-11-20T09:47:05;4.10;99.90
5796;DHT22;2924;51.458;7.046;2022-11-20T09:49:49;3.90;99.90
5796;DHT22;2924;51.458;7.046;2022-11-20T09:52:37;3.90;99.90
5796;DHT22;2924;51.458;7.046;2022-11-20T09:55:10;4.00;99.90
5796;DHT22;2924;51.458;7.046;2022-11-20T09:57:40;4.10;99.90
5796;DHT22;2924;51.458;7.046;2022-11-20T10:00:10;4.30;99.90
5796;DHT22;2924;51.458;7.046;2022-11-20T10:10:42;4.60;99.90
5796;DHT22;2924;51.458;7.046;2022-11-20T10:21:35;5.70;99.90
5796;DHT22;2924;51.458;7.046;2022-11-20T10:24:38;6.20;99.90
5796;DHT22;2924;51.458;7.046;2022-11-20T10:30:15;7.10;99.90
5796;DHT22;2924;51.458;7.046;2022-11-20T10:32:44;7.30;99.90
5796;DHT22;2924;51.458;7.046;2022-11-20T10:37:43;8.00;99.90
5796;DHT22;2924;51.458;7.046;2022-11-20T10:40:23;7.80;99.90
5796;DHT22;2924;51.458;7.046;2022-11-20T10:42:56;7.40;99.90
5796;DHT22;2924;51.458;7.046;2022-11-20T10:48:16;6.80;99.90
5796;DHT22;2924;51.458;7.046;2022-11-20T10:53:48;6.80;99.90
5796;DHT22;2924;51.458;7.046;2022-11-20T11:01:52;6.60;99.90
5796;DHT22;2924;51.458;7.046;2022-11-20T11:04:42;6.30;99.90
5796;DHT22;2924;51.458;7.046;2022-11-20T11:07:15;6.00;99.90
5796;DHT22;2924;51.458;7.046;2022-11-20T11:09:47;5.90;99.90
5796;DHT22;2924;51.458;7.046;2022-11-20T11:12:13;5.80;99.90
5796;DHT22;2924;51.458;7.046;2022-11-20T11:14:47;5.80;99.90
5796;DHT22;2924;51.458;7.046;2022-11-20T11:17:33;5.80;99.90
5796;DHT22;2924;51.458;7.046;2022-11-20T11:20:06;5.90;99.90
5796;DHT22;2924;51.458;7.046;2022-11-20T11:23:00;5.80;99.90
5796;DHT22;2924;51.458;7.046;2022-11-20T11:25:34;5.70;99.90
5796;DHT22;2924;51.458;7.046;2022-11-20T11:28:17;5.60;99.90
5796;DHT22;2924;51.458;7.046;2022-11-20T11:30:45;5.50;99.90
5796;DHT22;2924;51.458;7.046;2022-11-20T11:33:30;5.40;99.90
5796;DHT22;2924;51.458;7.046;2022-11-20T11:35:58;5.40;99.90
5796;DHT22;2924;51.458;7.046;2022-11-20T11:38:35;5.40;99.90
5796;DHT22;2924;51.458;7.046;2022-11-20T11:41:02;5.60;99.90
5796;DHT22;2924;51.458;7.046;2022-11-20T11:43:31;5.80;99.90
5796;DHT22;2924;51.458;7.046;2022-11-20T11:46:32;5.80;99.90
5796;DHT22;2924;51.458;7.046;2022-11-20T11:49:19;5.80;99.90
5796;DHT22;2924;51.458;7.046;2022-11-20T11:54:28;5.70;99.90
5796;DHT22;2924;51.458;7.046;2022-11-20T11:57:00;5.60;99.90
5796;DHT22;2924;51.458;7.046;2022-11-20T12:02:59;6.00;99.90
5796;DHT22;2924;51.458;7.046;2022-11-20T12:05:38;5.80;99.90
5796;DHT22;2924;51.458;7.046;2022-11-20T12:08:06;5.60;99.90
5796;DHT22;2924;51.458;7.046;2022-11-20T12:10:44;5.60;99.90
5796;DHT22;2924;51.458;7.046;2022-11-20T12:15:59;5.60;99.90
5796;DHT22;2924;51.458;7.046;2022-11-20T12:18:25;5.60;99.90
5796;DHT22;2924;51.458;7.046;2022-11-20T12:48:38;4.40;99.90
5796;DHT22;2924;51.458;7.046;2022-11-20T13:00:07;4.50;99.90
5796;DHT22;2924;51.458;7.046;2022-11-20T13:08:34;4.50;99.90
5796;DHT22;2924;51.458;7.046;2022-11-20T13:11:47;4.60;99.90
5796;DHT22;2924;51.458;7.046;2022-11-20T13:14:52;4.60;99.90
5796;DHT22;2924;51.458;7.046;2022-11-20T13:17:35;4.60;99.90
5796;DHT22;2924;51.458;7.046;2022-11-20T13:20:04;4.60;99.90
5796;DHT22;2924;51.458;7.046;2022-11-20T13:22:45;4.60;99.90
5796;DHT22;2924;51.458;7.046;2022-11-20T13:25:28;4.50;99.90
5796;DHT22;2924;51.458;7.046;2022-11-20T13:27:55;4.50;99.90
5796;DHT22;2924;51.458;7.046;2022-11-20T13:30:23;4.50;99.90
5796;DHT22;2924;51.458;7.046;2022-11-20T13:32:51;4.40;99.90
5796;DHT22;2924;51.458;7.046;2022-11-20T13:35:40;4.40;99.90
5796;DHT22;2924;51.458;7.046;2022-11-20T13:38:12;4.30;99.90
5796;DHT22;2924;51.458;7.046;2022-11-20T13:41:00;4.30;99.90
5796;DHT22;2924;51.458;7.046;2022-11-20T13:43:44;4.30;99.90
5796;DHT22;2924;51.458;7.046;2022-11-20T13:46:12;4.30;99.90
5796;DHT22;2924;51.458;7.046;2022-11-20T13:48:44;4.30;99.90
5796;DHT22;2924;51.458;7.046;2022-11-20T13:59:43;4.20;99.90
5796;DHT22;2924;51.458;7.046;2022-11-20T14:02:16;4.10;99.90
5796;DHT22;2924;51.458;7.046;2022-11-20T14:04:51;4.00;99.90
5796;DHT22;2924;51.458;7.046;2022-11-20T14:07:20;3.90;99.90
5796;DHT22;2924;51.458;7.046;2022-11-20T14:09:52;3.90;99.90
5796;DHT22;2924;51.458;7.046;2022-11-20T14:12:20;3.80;99.90
5796;DHT22;2924;51.458;7.046;2022-11-20T14:14:49;3.80;99.90
5796;DHT22;2924;51.458;7.046;2022-11-20T14:19:48;3.90;99.90
5796;DHT22;2924;51.458;7.046;2022-11-20T14:22:25;3.80;99.90
5796;DHT22;2924;51.458;7.046;2022-11-20T14:27:39;3.80;99.90
5796;DHT22;2924;51.458;7.046;2022-11-20T14:30:16;3.70;99.90
5796;DHT22;2924;51.458;7.046;2022-11-20T14:32:43;3.60;99.90
5796;DHT22;2924;51.458;7.046;2022-11-20T14:35:16;3.60;99.90
5796;DHT22;2924;51.458;7.046;2022-11-20T14:37:44;3.60;99.90
5796;DHT22;2924;51.458;7.046;2022-11-20T14:42:48;3.60;99.90
5796;DHT22;2924;51.458;7.046;2022-11-20T14:45:14;3.50;99.90
5796;DHT22;2924;51.458;7.046;2022-11-20T14:47:41;3.50;99.90
5796;DHT22;2924;51.458;7.046;2022-11-20T14:50:27;3.40;99.90
5796;DHT22;2924;51.458;7.046;2022-11-20T14:52:58;3.40;99.90
5796;DHT22;2924;51.458;7.046;2022-11-20T14:58:06;3.40;99.90
5796;DHT22;2924;51.458;7.046;2022-11-20T15:00:33;3.40;99.90
5796;DHT22;2924;51.458;7.046;2022-11-20T15:03:00;3.40;99.90
5796;DHT22;2924;51.458;7.046;2022-11-20T15:05:44;3.40;99.90
5796;DHT22;2924;51.458;7.046;2022-11-20T15:08:11;3.40;99.90
5796;DHT22;2924;51.458;7.046;2022-11-20T15:10:38;3.40;99.90
5796;DHT22;2924;51.458;7.046;2022-11-20T15:13:13;3.40;99.90
5796;DHT22;2924;51.458;7.046;2022-11-20T15:15:56;3.30;99.90
5796;DHT22;2924;51.458;7.046;2022-11-20T15:18:42;3.30;99.90
5796;DHT22;2924;51.458;7.046;2022-11-20T15:21:14;3.20;99.90
5796;DHT22;2924;51.458;7.046;2022-11-20T15:23:40;3.20;99.90
5796;DHT22;2924;51.458;7.046;2022-11-20T15:26:11;3.10;99.90
5796;DHT22;2924;51.458;7.046;2022-11-20T15:28:39;3.10;99.90
5796;DHT22;2924;51.458;7.046;2022-11-20T15:31:06;3.20;99.90
5796;DHT22;2924;51.458;7.046;2022-11-20T15:33:33;3.20;99.90
5796;DHT22;2924;51.458;7.046;2022-11-20T15:35:59;3.10;99.90
5796;DHT22;2924;51.458;7.046;2022-11-20T15:38:25;3.10;99.90
5796;DHT22;2924;51.458;7.046;2022-11-20T15:40:50;3.00;99.90
5796;DHT22;2924;51.458;7.046;2022-11-20T15:43:16;3.00;99.90
5796;DHT22;2924;51.458;7.046;2022-11-20T15:45:52;3.00;99.90
5796;DHT22;2924;51.458;7.046;2022-11-20T15:48:27;3.00;99.90
5796;DHT22;2924;51.458;7.046;2022-11-20T15:51:03;3.00;99.90
5796;DHT22;2924;51.458;7.046;2022-11-20T15:53:31;3.00;99.90
5796;DHT22;2924;51.458;7.046;2022-11-20T15:55:56;3.10;99.90
5796;DHT22;2924;51.458;7.046;2022-11-20T15:58:22;3.00;99.90
5796;DHT22;2924;51.458;7.046;2022-11-20T16:00:49;3.10;99.90
5796;DHT22;2924;51.458;7.046;2022-11-20T16:03:16;3.10;99.90
5796;DHT22;2924;51.458;7.046;2022-11-20T16:05:42;3.10;99.90
5796;DHT22;2924;51.458;7.046;2022-11-20T16:08:08;3.10;99.90
5796;DHT22;2924;51.458;7.046;2022-11-20T16:10:34;3.10;99.90
5796;DHT22;2924;51.458;7.046;2022-11-20T16:13:00;3.10;99.90
5796;DHT22;2924;51.458;7.046;2022-11-20T16:15:52;3.20;99.90
5796;DHT22;2924;51.458;7.046;2022-11-20T16:18:20;3.20;99.90
5796;DHT22;2924;51.458;7.046;2022-11-20T16:20:48;3.10;99.90
5796;DHT22;2924;51.458;7.046;2022-11-20T16:23:14;3.10;99.90
5796;DHT22;2924;51.458;7.046;2022-11-20T16:25:41;3.10;99.90
5796;DHT22;2924;51.458;7.046;2022-11-20T16:28:07;3.10;99.90
5796;DHT22;2924;51.458;7.046;2022-11-20T16:30:33;3.10;99.90
5796;DHT22;2924;51.458;7.046;2022-11-20T16:33:00;3.20;99.90
5796;DHT22;2924;51.458;7.046;2022-11-20T16:35:29;3.20;99.90
5796;DHT22;2924;51.458;7.046;2022-11-20T16:37:58;3.20;99.90
5796;DHT22;2924;51.458;7.046;2022-11-20T16:40:24;3.10;99.90
5796;DHT22;2924;51.458;7.046;2022-11-20T16:42:50;3.10;99.90
5796;DHT22;2924;51.458;7.046;2022-11-20T16:45:16;3.20;99.90
5796;DHT22;2924;51.458;7.046;2022-11-20T16:47:42;3.20;99.90
5796;DHT22;2924;51.458;7.046;2022-11-20T16:50:08;3.20;99.90
5796;DHT22;2924;51.458;7.046;2022-11-20T16:52:34;3.10;99.90
5796;DHT22;2924;51.458;7.046;2022-11-20T16:55:00;3.20;99.90
5796;DHT22;2924;51.458;7.046;2022-11-20T16:57:29;3.20;99.90
5796;DHT22;2924;51.458;7.046;2022-11-20T16:59:56;3.20;99.90
5796;DHT22;2924;51.458;7.046;2022-11-20T17:02:22;3.30;99.90
5796;DHT22;2924;51.458;7.046;2022-11-20T17:04:47;3.40;99.90
5796;DHT22;2924;51.458;7.046;2022-11-20T17:07:13;3.40;99.90
5796;DHT22;2924;51.458;7.046;2022-11-20T17:09:39;3.40;99.90
5796;DHT22;2924;51.458;7.046;2022-11-20T17:12:05;3.50;99.90
5796;DHT22;2924;51.458;7.046;2022-11-20T17:14:30;3.50;99.90
5796;DHT22;2924;51.458;7.046;2022-11-20T17:16:56;3.60;99.90
5796;DHT22;2924;51.458;7.046;2022-11-20T17:19:22;3.60;99.90
5796;DHT22;2924;51.458;7.046;2022-11-20T17:21:48;3.50;99.90
5796;DHT22;2924;51.458;7.046;2022-11-20T17:24:14;3.60;99.90
5796;DHT22;2924;51.458;7.046;2022-11-20T17:26:41;3.70;99.90
5796;DHT22;2924;51.458;7.046;2022-11-20T17:29:13;3.70;99.90
5796;DHT22;2924;51.458;7.046;2022-11-20T17:31:39;3.80;99.90
5796;DHT22;2924;51.458;7.046;2022-11-20T17:34:06;3.90;99.90
5796;DHT22;2924;51.458;7.046;2022-11-20T17:36:32;3.90;99.90
5796;DHT22;2924;51.458;7.046;2022-11-20T17:38:58;3.90;99.90
5796;DHT22;2924;51.458;7.046;2022-11-20T17:41:27;4.00;99.90
5796;DHT22;2924;51.458;7.046;2022-11-20T17:43:54;3.90;99.90
5796;DHT22;2924;51.458;7.046;2022-11-20T17:46:23;4.00;99.90
5796;DHT22;2924;51.458;7.046;2022-11-20T17:48:50;4.00;99.90
5796;DHT22;2924;51.458;7.046;2022-11-20T17:51:20;4.00;99.90
5796;DHT22;2924;51.458;7.046;2022-11-20T17:53:53;4.00;99.90
5796;DHT22;2924;51.458;7.046;2022-11-20T17:56:20;4.10;99.90
5796;DHT22;2924;51.458;7.046;2022-11-20T17:59:05;4.10;99.90
5796;DHT22;2924;51.458;7.046;2022-11-20T18:01:31;4.20;99.90
5796;DHT22;2924;51.458;7.046;2022-11-20T18:03:57;4.20;99.90
5796;DHT22;2924;51.458;7.046;2022-11-20T18:06:24;4.20;99.90
5796;DHT22;2924;51.458;7.046;2022-11-20T18:08:50;4.20;99.90
5796;DHT22;2924;51.458;7.046;2022-11-20T18:11:21;4.30;99.90